Time;durP1;ratioP1;P1;durP2;ratioP2;P2;SDS_P1;SDS_P2;PMS_P1;PMS_P2;Temp;Humidity;BMP_temperature;BMP_pressure;BME280_temperature;BME280_humidity;BME280_pressure;Samples;Min_cycle;Max_cycle;Signal;HPM_P1;HPM_P2
2021/05/22 00:02:26;;;;;;;1.42;0.60;;;15.50;88.00;;;;;;5031356;28;20063;-58
2021/05/22 00:04:54;;;;;;;1.88;0.40;;;15.50;88.10;;;;;;5038065;28;20045;-58
2021/05/22 00:07:22;;;;;;;3.42;0.70;;;15.50;88.00;;;;;;5029239;28;20053;-58
2021/05/22 00:09:49;;;;;;;1.77;0.90;;;15.50;88.10;;;;;;5048574;28;20053;-58
2021/05/22 00:12:16;;;;;;;1.33;0.40;;;15.50;88.10;;;;;;5041916;28;20053;-58
2021/05/22 00:14:43;;;;;;;1.23;0.57;;;15.50;87.90;;;;;;5049418;28;20451;-58
2021/05/22 00:17:10;;;;;;;1.85;0.60;;;15.50;87.60;;;;;;5028805;28;20376;-58
2021/05/22 00:19:37;;;;;;;3.65;0.93;;;15.50;87.50;;;;;;5025676;28;20570;-58
2021/05/22 00:22:04;;;;;;;1.55;0.55;;;15.50;87.40;;;;;;5033926;28;20052;-58
2021/05/22 00:24:31;;;;;;;1.38;0.70;;;15.50;87.20;;;;;;5032762;28;20059;-58
2021/05/22 00:26:59;;;;;;;0.60;0.30;;;15.50;87.30;;;;;;5049696;28;20554;-58
2021/05/22 00:29:26;;;;;;;1.63;0.70;;;15.40;87.20;;;;;;5049288;28;20053;-58
2021/05/22 00:31:53;;;;;;;0.90;0.60;;;15.40;87.00;;;;;;5018211;28;20045;-58
2021/05/22 00:34:19;;;;;;;1.70;0.57;;;15.30;87.00;;;;;;5056212;28;20045;-58
2021/05/22 00:36:46;;;;;;;2.33;1.10;;;15.30;86.80;;;;;;5031426;28;20122;-58
2021/05/22 00:39:14;;;;;;;1.67;0.45;;;15.30;87.10;;;;;;5031681;28;20064;-58
2021/05/22 00:41:40;;;;;;;4.05;0.70;;;15.30;87.10;;;;;;5049432;28;20049;-59
2021/05/22 00:44:08;;;;;;;2.55;0.60;;;15.30;86.90;;;;;;5033327;28;20523;-58
2021/05/22 00:46:35;;;;;;;2.17;0.60;;;15.30;86.70;;;;;;5031477;28;20057;-58
2021/05/22 00:49:02;;;;;;;0.70;0.40;;;15.30;86.70;;;;;;5049997;28;20095;-58
2021/05/22 00:51:29;;;;;;;0.80;0.55;;;15.30;86.80;;;;;;5031664;28;20056;-58
2021/05/22 00:53:56;;;;;;;2.78;0.80;;;15.30;86.70;;;;;;5049436;28;20049;-58
2021/05/22 00:56:23;;;;;;;1.33;0.52;;;15.30;86.70;;;;;;5043556;28;20112;-58
2021/05/22 00:58:50;;;;;;;1.30;0.55;;;15.30;86.80;;;;;;5049032;28;20705;-58
2021/05/22 01:01:17;;;;;;;1.63;0.77;;;15.30;87.00;;;;;;5053383;28;20056;-58
2021/05/22 01:03:49;;;;;;;1.33;0.60;;;15.30;87.30;;;;;;5055825;28;20115;-58
2021/05/22 01:06:24;;;;;;;2.15;0.90;;;15.20;87.40;;;;;;5038883;28;20045;-58
2021/05/22 01:08:54;;;;;;;0.85;0.65;;;15.20;87.40;;;;;;5053388;28;20048;-58
2021/05/22 01:11:28;;;;;;;1.70;0.73;;;15.20;87.20;;;;;;5052867;28;20690;-58
2021/05/22 01:14:15;;;;;;;3.05;0.90;;;15.20;87.30;;;;;;5051448;28;20044;-59
2021/05/22 01:16:44;;;;;;;1.80;0.77;;;15.20;87.60;;;;;;5048585;28;20057;-58
2021/05/22 01:19:41;;;;;;;1.55;0.70;;;15.20;88.00;;;;;;5032262;28;20049;-58
2021/05/22 01:22:10;;;;;;;3.53;0.80;;;15.20;88.10;;;;;;5025358;28;20053;-58
2021/05/22 01:25:01;;;;;;;2.70;0.77;;;15.20;88.00;;;;;;5044068;28;20487;-58
2021/05/22 01:27:28;;;;;;;2.85;0.65;;;15.10;88.00;;;;;;5031797;28;20512;-58
2021/05/22 01:29:59;;;;;;;2.13;0.57;;;15.10;88.40;;;;;;5040633;28;20053;-58
2021/05/22 01:32:26;;;;;;;2.28;1.13;;;15.10;88.50;;;;;;5006447;28;20046;-58
2021/05/22 01:34:55;;;;;;;2.53;0.80;;;15.10;88.70;;;;;;5033320;28;20088;-58
2021/05/22 01:37:22;;;;;;;5.63;1.23;;;15.00;88.70;;;;;;5032274;28;20124;-58
2021/05/22 01:39:49;;;;;;;1.85;1.00;;;15.00;88.50;;;;;;5014682;28;20049;-58
2021/05/22 01:42:16;;;;;;;1.60;0.90;;;15.00;88.70;;;;;;5013314;28;20056;-58
2021/05/22 01:44:48;;;;;;;2.13;0.73;;;15.00;88.60;;;;;;5034881;28;20057;-58
2021/05/22 01:47:16;;;;;;;1.27;0.87;;;15.00;88.70;;;;;;5014406;28;20061;-58
2021/05/22 01:49:43;;;;;;;2.47;0.85;;;15.00;88.70;;;;;;5015594;28;20053;-58
2021/05/22 01:52:10;;;;;;;3.13;1.00;;;15.00;89.00;;;;;;5033208;28;20506;-58
2021/05/22 01:54:39;;;;;;;2.70;1.13;;;14.90;89.00;;;;;;5031608;28;20045;-58
2021/05/22 01:57:07;;;;;;;1.65;0.90;;;14.90;89.30;;;;;;5030930;28;20112;-58
2021/05/22 01:59:38;;;;;;;1.08;0.88;;;14.90;89.60;;;;;;5025813;28;20556;-58
2021/05/22 02:02:05;;;;;;;1.92;1.00;;;14.90;89.90;;;;;;5034844;28;20084;-58
2021/05/22 02:04:36;;;;;;;1.58;1.10;;;14.80;90.10;;;;;;5034073;28;20328;-58
2021/05/22 02:07:04;;;;;;;2.47;1.10;;;14.80;90.20;;;;;;5033273;28;20057;-58
2021/05/22 02:09:33;;;;;;;4.10;1.27;;;14.80;90.40;;;;;;5031867;28;20508;-58
2021/05/22 02:12:04;;;;;;;1.80;1.10;;;14.80;90.60;;;;;;5028443;28;20046;-58
2021/05/22 02:14:34;;;;;;;2.05;1.17;;;14.70;90.70;;;;;;5030906;28;20079;-58
2021/05/22 02:17:05;;;;;;;2.85;1.42;;;14.70;90.90;;;;;;5032517;28;20046;-58
2021/05/22 02:19:35;;;;;;;1.85;1.30;;;14.70;91.00;;;;;;5032540;28;20046;-58
2021/05/22 02:22:05;;;;;;;2.03;1.40;;;14.70;91.20;;;;;;5031959;28;20484;-58
2021/05/22 02:24:33;;;;;;;2.50;1.15;;;14.70;91.30;;;;;;5007665;28;20046;-58
2021/05/22 02:27:03;;;;;;;4.10;1.58;;;14.60;91.40;;;;;;5012755;28;20046;-58
2021/05/22 02:29:33;;;;;;;2.25;1.30;;;14.70;91.40;;;;;;5046480;28;20426;-58
2021/05/22 02:32:03;;;;;;;2.03;1.35;;;14.70;91.40;;;;;;5039769;28;20103;-58
2021/05/22 02:34:36;;;;;;;3.75;2.05;;;14.60;91.40;;;;;;5034297;28;20052;-58
2021/05/22 02:37:04;;;;;;;2.00;1.73;;;14.70;91.50;;;;;;5031670;28;20049;-58
2021/05/22 02:39:33;;;;;;;2.50;1.23;;;14.60;91.40;;;;;;5028289;28;20091;-58
2021/05/22 02:42:03;;;;;;;3.85;1.27;;;14.60;91.40;;;;;;5033790;28;20057;-58
2021/05/22 02:44:31;;;;;;;1.95;1.33;;;14.60;91.40;;;;;;5026800;28;20538;-58
2021/05/22 02:46:59;;;;;;;2.42;1.30;;;14.60;91.50;;;;;;5045350;28;20052;-58
2021/05/22 02:49:28;;;;;;;4.60;1.17;;;14.60;91.50;;;;;;5033249;28;20047;-58
2021/05/22 02:51:58;;;;;;;2.83;1.15;;;14.60;91.70;;;;;;5051981;28;20048;-58
2021/05/22 02:54:28;;;;;;;1.90;1.42;;;14.50;91.60;;;;;;5051347;28;20055;-58
2021/05/22 02:56:57;;;;;;;4.18;1.25;;;14.50;91.80;;;;;;5051256;28;20060;-58
2021/05/22 02:59:26;;;;;;;2.05;1.48;;;14.50;91.70;;;;;;5043899;28;20049;-58
2021/05/22 03:01:54;;;;;;;2.97;1.33;;;14.50;91.90;;;;;;5044189;28;20055;-58
2021/05/22 03:04:21;;;;;;;2.67;1.15;;;14.40;91.90;;;;;;5051494;28;20098;-58
2021/05/22 03:06:49;;;;;;;1.85;1.35;;;14.40;92.10;;;;;;5051180;28;20056;-58
2021/05/22 03:09:16;;;;;;;4.47;1.30;;;14.40;92.20;;;;;;5050119;28;20045;-58
2021/05/22 03:11:43;;;;;;;2.00;1.40;;;14.40;92.10;;;;;;5051371;28;20055;-58
2021/05/22 03:14:10;;;;;;;2.88;1.50;;;14.40;92.40;;;;;;5050948;28;20381;-58
2021/05/22 03:16:37;;;;;;;2.25;1.23;;;14.40;92.30;;;;;;5029489;28;20154;-58
2021/05/22 03:19:05;;;;;;;2.78;1.50;;;14.40;92.30;;;;;;5032536;28;20060;-58
2021/05/22 03:21:32;;;;;;;2.72;1.65;;;14.40;92.30;;;;;;5032949;28;20049;-58
2021/05/22 03:23:59;;;;;;;2.95;1.00;;;14.40;92.40;;;;;;5050614;28;20061;-58
2021/05/22 03:26:27;;;;;;;2.75;1.30;;;14.40;92.40;;;;;;5068747;28;20056;-58
2021/05/22 03:28:54;;;;;;;2.75;1.50;;;14.40;92.40;;;;;;5034936;28;20053;-58
2021/05/22 03:31:22;;;;;;;2.10;1.50;;;14.30;92.20;;;;;;5052397;28;20496;-58
2021/05/22 03:33:49;;;;;;;2.10;1.58;;;14.30;92.30;;;;;;5050723;28;20103;-58
2021/05/22 03:36:16;;;;;;;3.03;1.48;;;14.30;92.20;;;;;;5051032;28;20052;-58
2021/05/22 03:38:43;;;;;;;3.28;1.50;;;14.40;92.30;;;;;;5052284;28;20114;-58
2021/05/22 03:41:10;;;;;;;3.53;1.50;;;14.30;92.20;;;;;;5026796;28;20046;-58
2021/05/22 03:43:37;;;;;;;3.20;1.40;;;14.30;92.40;;;;;;5045626;28;20080;-58
2021/05/22 03:46:04;;;;;;;3.30;1.25;;;14.30;92.40;;;;;;5050630;28;20381;-58
2021/05/22 03:48:31;;;;;;;3.53;1.20;;;14.30;92.50;;;;;;5050977;28;20132;-58
2021/05/22 03:50:58;;;;;;;2.33;1.60;;;14.20;92.60;;;;;;5052647;28;20041;-58
2021/05/22 03:53:25;;;;;;;2.25;1.25;;;14.20;92.60;;;;;;5057810;28;20048;-58
2021/05/22 03:55:52;;;;;;;3.10;1.63;;;14.30;92.60;;;;;;5065815;28;20111;-59
2021/05/22 03:58:19;;;;;;;5.65;1.60;;;14.30;92.70;;;;;;5049702;28;20068;-60
2021/05/22 04:00:46;;;;;;;3.40;1.30;;;14.30;92.70;;;;;;5032665;28;20144;-59
2021/05/22 04:03:14;;;;;;;2.45;1.30;;;14.30;92.70;;;;;;5051740;28;20139;-60
2021/05/22 04:05:41;;;;;;;1.95;1.10;;;14.30;92.80;;;;;;5032564;28;20056;-59
2021/05/22 04:08:08;;;;;;;2.95;1.50;;;14.30;92.80;;;;;;5049505;28;20052;-60
2021/05/22 04:10:35;;;;;;;3.42;1.67;;;14.30;92.80;;;;;;5031441;28;20036;-60
2021/05/22 04:13:02;;;;;;;3.92;1.45;;;14.30;92.80;;;;;;5032734;28;20045;-60
2021/05/22 04:15:29;;;;;;;2.78;1.45;;;14.40;92.90;;;;;;5052236;28;20037;-59
2021/05/22 04:17:56;;;;;;;2.55;1.42;;;14.40;92.90;;;;;;5052259;28;20051;-59
2021/05/22 04:20:23;;;;;;;3.60;2.38;;;14.40;92.90;;;;;;5049168;28;20115;-59
2021/05/22 04:22:50;;;;;;;2.38;1.52;;;14.40;92.80;;;;;;5057065;28;20124;-60
2021/05/22 04:25:17;;;;;;;1.98;1.10;;;14.50;92.90;;;;;;5051837;28;20096;-60
2021/05/22 04:27:44;;;;;;;2.53;1.33;;;14.50;92.80;;;;;;5050022;28;20041;-59
2021/05/22 04:30:12;;;;;;;3.60;1.50;;;14.50;92.50;;;;;;5032170;28;20045;-59
2021/05/22 04:32:39;;;;;;;2.85;1.05;;;14.60;92.40;;;;;;5050817;28;20060;-59
2021/05/22 04:35:07;;;;;;;2.53;1.27;;;14.60;92.10;;;;;;5050593;28;20057;-59
2021/05/22 04:37:34;;;;;;;5.28;1.80;;;14.60;92.20;;;;;;5026288;28;20049;-59
2021/05/22 04:40:03;;;;;;;5.25;1.60;;;14.70;92.10;;;;;;5049235;28;20083;-60
2021/05/22 04:42:30;;;;;;;1.80;1.00;;;14.70;92.10;;;;;;5048627;28;20080;-60
2021/05/22 04:44:58;;;;;;;3.10;1.20;;;14.80;91.90;;;;;;5047778;28;20065;-59
2021/05/22 04:47:25;;;;;;;2.72;1.30;;;14.80;92.00;;;;;;5050027;28;20045;-59
2021/05/22 04:49:52;;;;;;;2.22;1.30;;;14.90;91.90;;;;;;5051163;28;20048;-60
2021/05/22 04:52:21;;;;;;;1.83;1.17;;;15.00;91.80;;;;;;5050362;28;20056;-59
2021/05/22 04:54:50;;;;;;;2.05;1.10;;;15.00;91.70;;;;;;5030406;28;20060;-59
2021/05/22 04:57:17;;;;;;;2.92;1.50;;;15.00;91.80;;;;;;5032391;28;20045;-60
2021/05/22 04:59:45;;;;;;;3.08;1.35;;;15.00;91.40;;;;;;5052007;28;20059;-60
2021/05/22 05:02:12;;;;;;;2.30;1.23;;;15.10;91.40;;;;;;5050486;28;20099;-60
2021/05/22 05:04:39;;;;;;;2.88;1.58;;;15.10;91.70;;;;;;5043223;28;20053;-60
2021/05/22 05:07:06;;;;;;;2.40;1.05;;;15.10;92.00;;;;;;5046553;28;20061;-60
2021/05/22 05:09:35;;;;;;;2.53;1.20;;;15.20;91.90;;;;;;5047504;28;20423;-60
2021/05/22 05:12:07;;;;;;;2.25;1.13;;;15.20;91.70;;;;;;5037044;28;20388;-60
2021/05/22 05:14:34;;;;;;;1.80;1.00;;;15.20;91.20;;;;;;5046833;28;20408;-60
2021/05/22 05:17:01;;;;;;;2.63;0.90;;;15.20;91.40;;;;;;5026121;28;20048;-60
2021/05/22 05:19:30;;;;;;;2.83;1.38;;;15.20;91.00;;;;;;5053192;28;20053;-60
2021/05/22 05:21:58;;;;;;;1.95;0.93;;;15.20;91.00;;;;;;5056126;28;20666;-60
2021/05/22 05:24:25;;;;;;;2.80;1.15;;;15.30;91.00;;;;;;5030639;28;20053;-59
2021/05/22 05:26:52;;;;;;;2.83;0.98;;;15.30;91.00;;;;;;5050069;28;20056;-60
2021/05/22 05:29:20;;;;;;;3.75;1.23;;;15.30;91.00;;;;;;5051313;28;20045;-60
2021/05/22 05:31:47;;;;;;;1.65;0.95;;;15.30;90.90;;;;;;5056708;28;20044;-60
2021/05/22 05:34:14;;;;;;;4.40;1.13;;;15.40;91.20;;;;;;5048710;28;20122;-60
2021/05/22 05:36:41;;;;;;;1.58;0.90;;;15.40;90.90;;;;;;5049280;28;20048;-60
2021/05/22 05:39:10;;;;;;;3.00;1.08;;;15.40;91.30;;;;;;5050086;28;20692;-59
2021/05/22 05:41:37;;;;;;;3.42;1.33;;;15.40;91.40;;;;;;5050970;28;20056;-59
2021/05/22 05:44:08;;;;;;;5.55;1.20;;;15.40;91.50;;;;;;5048866;28;20104;-60
2021/05/22 05:46:35;;;;;;;2.83;1.10;;;15.40;91.10;;;;;;5031861;28;20084;-60
2021/05/22 05:49:02;;;;;;;4.07;1.30;;;15.40;91.00;;;;;;5053243;28;20056;-59
2021/05/22 05:51:29;;;;;;;1.90;0.80;;;15.30;91.00;;;;;;5052015;28;20535;-60
2021/05/22 05:53:56;;;;;;;3.03;1.05;;;15.40;91.20;;;;;;5053107;28;20049;-60
2021/05/22 05:56:23;;;;;;;1.90;0.70;;;15.40;91.30;;;;;;5035072;28;20060;-61
2021/05/22 05:58:50;;;;;;;3.78;1.05;;;15.40;91.00;;;;;;5033677;28;20052;-60
2021/05/22 06:01:17;;;;;;;3.25;1.23;;;15.40;91.20;;;;;;5053129;28;20071;-59
2021/05/22 06:03:44;;;;;;;2.72;0.93;;;15.50;91.20;;;;;;5036033;28;20061;-60
2021/05/22 06:06:11;;;;;;;3.08;0.80;;;15.50;91.00;;;;;;5052425;28;20052;-60
2021/05/22 06:08:38;;;;;;;2.88;0.77;;;15.50;91.20;;;;;;5050431;28;20057;-60
2021/05/22 06:11:08;;;;;;;4.40;1.25;;;15.50;91.70;;;;;;5035680;28;20479;-60
2021/05/22 06:13:35;;;;;;;2.55;1.00;;;15.50;92.40;;;;;;5035164;28;20088;-60
2021/05/22 06:18:38;;;;;;;4.10;1.40;;;15.50;94.00;;;;;;5035663;28;20052;-60
2021/05/22 06:21:07;;;;;;;3.60;1.20;;;15.50;95.00;;;;;;5027681;28;20049;-60
2021/05/22 06:23:36;;;;;;;3.63;1.63;;;15.50;96.80;;;;;;5051703;28;20118;-60
2021/05/22 06:26:04;;;;;;;3.70;1.27;;;15.40;96.90;;;;;;5049417;28;20044;-60
2021/05/22 06:28:31;;;;;;;3.13;1.40;;;15.40;98.00;;;;;;5050381;28;20128;-59
2021/05/22 06:31:04;;;;;;;2.00;1.33;;;15.40;97.90;;;;;;5037049;28;20037;-60
2021/05/22 06:33:31;;;;;;;2.53;1.27;;;15.30;97.00;;;;;;5027468;28;20069;-60
2021/05/22 06:35:59;;;;;;;2.60;1.00;;;15.30;96.80;;;;;;5031340;28;20051;-60
2021/05/22 06:38:26;;;;;;;3.60;1.02;;;15.30;96.00;;;;;;5032937;28;20140;-60
2021/05/22 06:40:54;;;;;;;2.05;0.77;;;15.30;95.90;;;;;;5018826;28;20384;-60
2021/05/22 06:43:21;;;;;;;1.67;0.80;;;15.30;95.00;;;;;;5050529;28;20052;-60
2021/05/22 06:45:59;;;;;;;1.83;0.95;;;15.30;94.60;;;;;;5014565;28;20578;-60
2021/05/22 06:48:28;;;;;;;2.88;0.60;;;15.30;94.30;;;;;;5036512;28;20139;-60
2021/05/22 06:50:55;;;;;;;1.00;0.60;;;15.30;93.90;;;;;;5016654;28;20049;-60
2021/05/22 06:53:22;;;;;;;2.63;0.75;;;15.30;93.30;;;;;;5032989;28;20052;-60
2021/05/22 06:55:49;;;;;;;2.38;0.43;;;15.30;93.30;;;;;;5032909;28;20052;-59
2021/05/22 06:58:18;;;;;;;2.67;0.68;;;15.40;92.90;;;;;;5031249;28;20049;-60
2021/05/22 07:00:46;;;;;;;1.33;0.40;;;15.40;93.00;;;;;;5039820;28;20454;-60
2021/05/22 07:03:12;;;;;;;1.95;0.70;;;15.40;92.90;;;;;;5033805;28;20056;-60
2021/05/22 07:05:40;;;;;;;1.15;0.40;;;15.40;93.20;;;;;;5050447;28;20419;-60
2021/05/22 07:08:07;;;;;;;1.10;0.60;;;15.50;92.80;;;;;;5048419;28;20041;-60
2021/05/22 07:10:35;;;;;;;2.35;0.40;;;15.60;92.80;;;;;;5047908;28;20044;-60
2021/05/22 07:13:04;;;;;;;1.95;0.30;;;15.60;92.20;;;;;;5051281;28;20081;-60
2021/05/22 07:15:31;;;;;;;1.85;0.35;;;15.60;91.90;;;;;;5028326;28;20056;-60
2021/05/22 07:17:58;;;;;;;1.08;0.40;;;15.70;92.40;;;;;;5044589;28;20048;-60
2021/05/22 07:20:25;;;;;;;1.50;0.55;;;15.70;92.40;;;;;;5021432;28;20809;-60
2021/05/22 07:22:54;;;;;;;2.15;0.30;;;15.70;92.50;;;;;;5047087;28;20060;-60
2021/05/22 07:25:22;;;;;;;5.25;0.50;;;15.60;91.70;;;;;;5049597;28;20053;-60
2021/05/22 07:27:51;;;;;;;2.55;0.40;;;15.60;92.60;;;;;;5031902;28;20602;-60
2021/05/22 07:30:20;;;;;;;1.70;0.40;;;15.60;92.10;;;;;;5020230;28;20136;-61
2021/05/22 07:32:47;;;;;;;2.83;0.40;;;15.60;92.10;;;;;;5048592;28;20049;-61
2021/05/22 07:35:15;;;;;;;1.80;0.20;;;15.60;91.70;;;;;;5048455;28;20563;-62
2021/05/22 07:37:42;;;;;;;4.45;0.50;;;15.50;91.80;;;;;;5048965;28;20049;-61
2021/05/22 07:40:12;;;;;;;0.85;0.20;;;15.50;91.80;;;;;;5048527;28;20136;-61
2021/05/22 07:42:39;;;;;;;2.28;0.30;;;15.50;91.30;;;;;;5044605;28;20065;-61
2021/05/22 07:45:07;;;;;;;1.52;0.32;;;15.50;91.90;;;;;;5041385;28;20530;-61
2021/05/22 07:47:34;;;;;;;1.10;0.30;;;15.50;91.80;;;;;;5048907;28;20053;-61
2021/05/22 07:50:02;;;;;;;0.90;0.35;;;15.50;92.00;;;;;;5049707;28;20071;-61
2021/05/22 07:52:29;;;;;;;0.63;0.20;;;15.50;92.00;;;;;;5049563;28;20064;-61
2021/05/22 07:54:58;;;;;;;0.90;0.30;;;15.50;92.20;;;;;;5048036;28;20052;-61
2021/05/22 07:57:25;;;;;;;2.03;0.43;;;15.60;91.80;;;;;;5030174;28;20049;-61
2021/05/22 07:59:52;;;;;;;1.50;0.40;;;15.60;92.20;;;;;;5042466;28;20404;-61
2021/05/22 08:02:18;;;;;;;1.50;0.20;;;15.70;91.90;;;;;;5030144;28;20045;-61
2021/05/22 08:04:45;;;;;;;1.40;0.20;;;15.70;91.50;;;;;;5048610;28;20053;-62
2021/05/22 08:07:13;;;;;;;3.10;0.30;;;15.70;91.20;;;;;;5031451;28;20060;-62
2021/05/22 08:09:40;;;;;;;2.50;0.32;;;15.70;90.70;;;;;;5030645;28;20049;-61
2021/05/22 08:12:07;;;;;;;0.70;0.22;;;15.80;90.70;;;;;;5037165;28;20091;-62
2021/05/22 08:14:35;;;;;;;1.77;0.20;;;15.80;89.70;;;;;;5044198;28;20052;-62
2021/05/22 08:17:02;;;;;;;2.38;0.30;;;15.80;90.40;;;;;;5049537;28;20570;-62
2021/05/22 08:19:29;;;;;;;1.52;0.22;;;15.80;90.50;;;;;;5045808;28;20596;-62
2021/05/22 08:21:56;;;;;;;2.20;0.75;;;15.80;90.50;;;;;;5022404;28;20064;-62
2021/05/22 08:24:23;;;;;;;2.65;0.20;;;15.80;89.90;;;;;;5030887;28;20048;-62
2021/05/22 08:26:50;;;;;;;2.00;0.20;;;15.80;89.00;;;;;;5028319;28;20496;-61
2021/05/22 08:29:38;;;;;;;0.60;0.20;;;15.80;89.50;;;;;;5038928;28;20044;-61
2021/05/22 08:32:06;;;;;;;1.27;0.10;;;15.90;89.40;;;;;;5027724;28;20065;-61
2021/05/22 08:34:33;;;;;;;2.47;0.40;;;15.90;89.00;;;;;;5021420;28;20041;-61
2021/05/22 08:37:00;;;;;;;1.75;0.22;;;16.00;89.00;;;;;;5042063;28;20053;-62
2021/05/22 08:39:27;;;;;;;1.13;0.13;;;16.00;87.40;;;;;;5028944;28;20739;-62
2021/05/22 08:41:55;;;;;;;0.65;0.20;;;16.00;88.10;;;;;;5058458;28;20136;-62
2021/05/22 08:44:22;;;;;;;1.70;0.10;;;16.00;87.90;;;;;;5021242;28;20091;-61
2021/05/22 08:46:49;;;;;;;2.85;0.20;;;16.10;87.20;;;;;;5049106;28;20076;-61
2021/05/22 08:49:17;;;;;;;3.17;0.32;;;16.10;87.60;;;;;;5045945;28;20045;-61
2021/05/22 08:51:44;;;;;;;2.70;0.10;;;16.20;87.50;;;;;;5044949;28;20052;-61
2021/05/22 08:54:12;;;;;;;1.80;0.20;;;16.20;86.30;;;;;;5024173;28;20077;-61
2021/05/22 08:56:39;;;;;;;1.67;0.30;;;16.30;86.80;;;;;;5027645;28;20414;-61
2021/05/22 08:59:07;;;;;;;1.77;0.80;;;16.20;85.90;;;;;;5047373;28;20068;-61
2021/05/22 09:01:35;;;;;;;2.38;0.20;;;16.30;85.50;;;;;;5047324;28;20052;-61
2021/05/22 09:04:02;;;;;;;1.20;0.10;;;16.40;84.40;;;;;;5046968;28;20045;-61
2021/05/22 09:06:29;;;;;;;2.25;0.20;;;16.40;84.70;;;;;;5048433;28;20119;-62
2021/05/22 09:09:02;;;;;;;1.40;0.60;;;16.40;85.60;;;;;;5048734;28;20056;-62
2021/05/22 09:11:31;;;;;;;2.15;0.10;;;16.50;84.80;;;;;;5066764;28;20131;-62
2021/05/22 09:13:58;;;;;;;0.75;0.10;;;16.50;84.40;;;;;;5027061;28;20057;-62
2021/05/22 09:16:35;;;;;;;1.95;0.30;;;16.60;84.10;;;;;;5046849;28;20052;-62
2021/05/22 09:19:02;;;;;;;0.80;0.20;;;16.60;83.40;;;;;;5029799;28;20053;-62
2021/05/22 09:21:34;;;;;;;2.42;0.17;;;16.60;83.60;;;;;;5030122;28;20053;-62
2021/05/22 09:24:02;;;;;;;3.45;0.60;;;16.60;83.70;;;;;;5032810;28;20493;-62
2021/05/22 09:26:33;;;;;;;1.73;0.40;;;16.70;82.60;;;;;;5033235;28;20488;-62
2021/05/22 09:29:01;;;;;;;1.10;0.20;;;16.80;81.10;;;;;;5033719;28;20072;-62
2021/05/22 09:31:29;;;;;;;2.05;0.32;;;16.80;83.00;;;;;;5053076;28;20041;-62
2021/05/22 09:34:03;;;;;;;0.60;0.17;;;16.90;82.80;;;;;;5035171;28;20759;-62
2021/05/22 09:36:44;;;;;;;1.13;0.20;;;17.00;81.90;;;;;;5035457;28;20040;-62
2021/05/22 09:39:18;;;;;;;0.68;0.20;;;17.00;82.20;;;;;;5032913;28;20068;-62
2021/05/22 09:41:45;;;;;;;2.88;0.28;;;17.00;82.30;;;;;;5049158;28;20053;-62
2021/05/22 09:44:16;;;;;;;3.03;0.40;;;16.90;83.60;;;;;;5049444;28;20084;-62
2021/05/22 09:46:43;;;;;;;1.42;0.38;;;16.90;84.10;;;;;;5032203;28;20057;-62
2021/05/22 09:49:19;;;;;;;1.15;0.40;;;16.80;83.60;;;;;;5049427;28;20619;-62
2021/05/22 09:52:05;;;;;;;4.60;0.55;;;16.70;83.60;;;;;;5046543;28;20055;-62
2021/05/22 09:54:40;;;;;;;0.57;0.30;;;16.60;84.60;;;;;;5050325;28;20824;-62
2021/05/22 09:57:08;;;;;;;1.42;0.70;;;16.60;84.60;;;;;;5035038;28;20517;-62
2021/05/22 09:59:36;;;;;;;2.97;0.30;;;16.50;84.40;;;;;;5044794;28;20118;-62
2021/05/22 10:02:04;;;;;;;1.70;0.30;;;16.50;85.10;;;;;;5049737;28;20122;-62
2021/05/22 10:04:31;;;;;;;0.75;0.35;;;16.50;84.80;;;;;;5051903;28;20102;-62
2021/05/22 10:06:58;;;;;;;2.05;0.38;;;16.50;85.60;;;;;;5047183;28;20052;-62
2021/05/22 10:09:27;;;;;;;1.85;0.40;;;16.60;85.90;;;;;;5021983;28;20056;-62
2021/05/22 10:12:13;;;;;;;2.83;0.82;;;16.60;86.40;;;;;;5033052;28;20049;-62
2021/05/22 10:14:42;;;;;;;2.28;0.75;;;16.60;85.60;;;;;;5029967;28;20139;-62
2021/05/22 10:17:11;;;;;;;2.88;0.40;;;16.70;86.60;;;;;;5032326;28;20033;-62
2021/05/22 10:19:39;;;;;;;1.67;0.38;;;16.80;86.40;;;;;;5051045;28;20080;-62
2021/05/22 10:22:08;;;;;;;1.73;0.30;;;16.80;84.40;;;;;;5029912;28;20487;-62
2021/05/22 10:24:36;;;;;;;2.00;0.20;;;16.90;84.10;;;;;;5031669;28;20044;-70
2021/05/22 10:27:03;;;;;;;1.05;0.20;;;16.90;82.20;;;;;;5050520;28;20059;-61
2021/05/22 10:29:32;;;;;;;4.22;0.95;;;16.90;81.60;;;;;;5029226;28;20045;-61
2021/05/22 10:32:00;;;;;;;2.42;0.80;;;16.90;81.80;;;;;;5050401;28;20135;-62
2021/05/22 10:34:34;;;;;;;1.85;0.40;;;16.80;80.90;;;;;;5044574;28;20037;-68
2021/05/22 10:37:02;;;;;;;3.25;0.50;;;16.80;79.30;;;;;;5038349;28;20087;-68
2021/05/22 10:39:41;;;;;;;0.93;0.10;;;16.70;78.30;;;;;;5052392;28;20487;-69
2021/05/22 10:42:22;;;;;;;2.47;0.40;;;16.70;76.30;;;;;;5012878;28;20053;-68
2021/05/22 10:44:49;;;;;;;1.10;0.30;;;16.60;75.60;;;;;;5036933;28;20171;-68
2021/05/22 10:47:18;;;;;;;2.53;0.10;;;16.60;77.40;;;;;;5040753;28;20057;-68
2021/05/22 10:49:55;;;;;;;0.40;0.10;;;16.60;77.40;;;;;;5015346;28;20077;-68
2021/05/22 10:52:26;;;;;;;2.10;0.65;;;16.50;78.40;;;;;;5032594;28;20041;-68
2021/05/22 10:55:07;;;;;;;0.52;0.20;;;16.50;79.40;;;;;;5048626;28;20532;-66
2021/05/22 10:57:47;;;;;;;5.18;3.60;;;16.40;78.40;;;;;;5035136;28;20049;-69
2021/05/22 11:00:14;;;;;;;3.05;0.82;;;16.30;79.10;;;;;;5031588;28;20135;-64
2021/05/22 11:02:44;;;;;;;1.95;0.40;;;16.30;79.70;;;;;;5047492;28;20053;-61
2021/05/22 11:08:09;;;;;;;15.15;8.35;;;16.30;79.10;;;;;;5040692;28;20045;-62
2021/05/22 11:10:41;;;;;;;0.65;0.10;;;16.30;79.30;;;;;;5004078;28;20045;-62
2021/05/22 11:13:31;;;;;;;0.30;0.10;;;16.30;79.50;;;;;;5046162;28;20041;-69
2021/05/22 11:16:02;;;;;;;1.67;0.20;;;16.30;80.70;;;;;;5042832;28;20048;-69
2021/05/22 11:18:32;;;;;;;1.65;0.50;;;16.40;81.60;;;;;;5031055;28;20167;-71
2021/05/22 11:21:08;;;;;;;0.57;0.20;;;16.40;81.40;;;;;;5014584;28;20057;-69
2021/05/22 11:23:58;;;;;;;1.20;0.10;;;16.40;81.90;;;;;;5049610;28;20044;-69
2021/05/22 11:26:48;;;;;;;1.65;0.30;;;16.50;83.80;;;;;;5024803;28;20599;-68
2021/05/22 11:29:16;;;;;;;0.95;0.30;;;16.60;84.40;;;;;;5019741;28;20140;-68
2021/05/22 11:31:43;;;;;;;1.77;0.20;;;16.70;85.60;;;;;;5029788;28;20053;-68
2021/05/22 11:34:20;;;;;;;1.83;0.50;;;16.80;85.00;;;;;;5047999;28;20037;-68
2021/05/22 11:37:09;;;;;;;2.55;0.32;;;16.90;85.10;;;;;;5047275;28;20136;-69
2021/05/22 11:39:46;;;;;;;1.50;0.20;;;17.00;84.90;;;;;;5023941;28;20096;-68
2021/05/22 11:42:34;;;;;;;2.25;0.40;;;16.90;84.20;;;;;;5024899;28;20063;-68
2021/05/22 11:45:04;;;;;;;1.67;0.35;;;16.90;84.50;;;;;;5031181;28;20073;-68
2021/05/22 11:47:31;;;;;;;2.47;0.35;;;16.80;85.90;;;;;;5045060;28;20563;-68
2021/05/22 11:50:00;;;;;;;3.15;0.50;;;16.80;87.10;;;;;;5007379;28;20053;-68
2021/05/22 11:52:33;;;;;;;2.47;0.50;;;16.70;87.40;;;;;;5046601;28;20430;-68
2021/05/22 11:55:15;;;;;;;2.55;0.90;;;16.80;89.60;;;;;;5012100;28;20056;-68
2021/05/22 11:57:42;;;;;;;3.45;1.73;;;16.70;88.60;;;;;;5045476;28;20475;-68
2021/05/22 12:00:09;;;;;;;0.98;0.30;;;16.70;89.60;;;;;;5044944;28;20483;-68
2021/05/22 12:02:40;;;;;;;1.05;0.10;;;16.70;89.80;;;;;;5030075;28;20049;-68
2021/05/22 12:05:09;;;;;;;1.38;0.20;;;16.60;89.30;;;;;;5030718;28;20144;-68
2021/05/22 12:07:56;;;;;;;0.82;0.30;;;16.70;89.40;;;;;;5038847;28;20052;-67
2021/05/22 12:10:29;;;;;;;2.60;0.30;;;16.60;89.90;;;;;;5043718;28;20045;-67
2021/05/22 12:13:00;;;;;;;0.75;0.25;;;16.60;90.60;;;;;;5046824;28;20041;-68
2021/05/22 12:15:29;;;;;;;0.60;0.20;;;16.40;90.50;;;;;;5048730;28;20047;-69
2021/05/22 12:18:03;;;;;;;4.75;0.90;;;16.40;90.90;;;;;;5047179;28;20111;-68
2021/05/22 12:20:47;;;;;;;1.98;0.40;;;16.30;91.20;;;;;;5047579;28;20060;-68
2021/05/22 12:23:28;;;;;;;0.98;0.32;;;16.20;91.60;;;;;;5044569;28;20086;-68
2021/05/22 12:25:57;;;;;;;1.45;0.20;;;16.10;92.10;;;;;;5044380;28;20056;-62
2021/05/22 12:28:25;;;;;;;0.70;0.20;;;16.10;92.40;;;;;;5043889;28;20519;-62
2021/05/22 12:30:58;;;;;;;0.68;0.20;;;16.10;92.40;;;;;;5042627;28;20416;-62
2021/05/22 12:33:26;;;;;;;0.40;0.10;;;16.10;91.90;;;;;;5039666;28;20060;-61
2021/05/22 12:36:08;;;;;;;1.85;0.60;;;16.10;91.60;;;;;;5032995;28;20041;-62
2021/05/22 12:38:41;;;;;;;1.30;0.10;;;16.20;91.20;;;;;;5046402;28;20052;-62
2021/05/22 12:41:08;;;;;;;1.02;0.10;;;16.20;90.80;;;;;;5035215;28;20139;-62
2021/05/22 12:43:51;;;;;;;1.35;0.40;;;16.20;90.20;;;;;;5040796;28;20053;-62
2021/05/22 12:46:26;;;;;;;0.52;0.10;;;16.20;90.00;;;;;;5012150;28;20083;-62
2021/05/22 12:49:08;;;;;;;2.35;0.52;;;16.20;90.10;;;;;;5044318;28;20052;-62
2021/05/22 12:51:36;;;;;;;1.25;0.22;;;16.20;90.00;;;;;;5027658;28;20053;-62
2021/05/22 12:54:24;;;;;;;0.60;0.10;;;16.30;90.10;;;;;;5008741;28;20063;-62
2021/05/22 12:57:10;;;;;;;0.30;0.00;;;16.30;90.00;;;;;;5026542;28;20103;-62
2021/05/22 12:59:43;;;;;;;0.75;0.08;;;16.30;88.20;;;;;;5026037;28;20124;-62
2021/05/22 13:02:14;;;;;;;1.13;0.13;;;16.30;89.70;;;;;;5028870;28;20049;-61
2021/05/22 13:04:43;;;;;;;0.17;0.00;;;16.30;87.40;;;;;;5044078;28;20049;-62
2021/05/22 13:07:11;;;;;;;1.73;0.10;;;16.30;87.70;;;;;;5031018;28;20061;-62